Data for 06/19/2016

Time Sea-Level Adjusted Pressure Absolute Pressure Temperature Relative Humidity Dew Point   
(mb) (inHg) (mb) (inHg) (C) (F) (%) (C) (F)
00:05 1022 30.18 851 25.13 17.2 63 49 6.6 44
00:10 1022 30.18 851 25.13 17.1 62.8 50 6.7 44
00:15 1022 30.18 851 25.13 17 62.6 51 6.9 44.4
00:20 1022 30.18 851 25.13 16.9 62.4 52 7.1 44.8
00:25 1022 30.18 851 25.13 16.7 62.1 53 7.1 44.8
00:30 1022 30.18 851 25.13 16.7 62 54 7.5 45.4
00:35 1022 30.18 851 25.13 16.6 61.8 57 8.2 46.8
00:40 1022 30.18 851 25.13 16.3 61.3 60 8.5 47.2
00:45 1022 30.18 852 25.16 16 60.7 63 9 48.1
00:50 1022 30.18 852 25.16 15.5 59.9 64 8.8 47.8
00:55 1022 30.18 851 25.13 15 59 63 8 46.4
01:00 1022 30.18 851 25.13 15.2 59.4 61 7.7 45.9
01:05 1022 30.18 852 25.16 15.4 59.8 59 7.5 45.5
01:10 1023 30.21 852 25.16 15.6 60.1 62 8.4 47.2
01:15 1023 30.21 852 25.16 15.4 59.7 61 7.9 46.3
01:20 1023 30.21 852 25.16 15.4 59.8 59 7.7 45.8
01:25 1023 30.21 852 25.16 15.6 60.1 58 7.5 45.4
01:30 1023 30.21 853 25.19 15.6 60 60 7.9 46.2
01:35 1023 30.21 853 25.19 15.4 59.7 59 7.5 45.5
01:40 1024 30.24 853 25.19 15.2 59.3 62 8.1 46.6
01:45 1024 30.24 853 25.19 14.8 58.6 62 7.6 45.8
01:50 1024 30.24 853 25.19 15.1 59.1 40 1.5 34.8
01:55 1023 30.21 853 25.19 16.6 61.9 38 2.2 36
02:00 1023 30.21 853 25.19 16.4 61.6 50 6.2 43.2
02:05 1023 30.21 853 25.19 14.9 58.9 56 6.3 43.4
02:10 1024 30.24 853 25.19 14 57.2 57 5.8 42.4
02:15 1024 30.24 853 25.19 13.6 56.4 57 5.3 41.6
02:20 1024 30.24 853 25.19 13.2 55.7 58 5.1 41.1
02:25 1024 30.24 853 25.19 13.1 55.5 57 4.9 40.8
02:30 1024 30.24 853 25.19 13 55.4 58 4.9 40.8
02:35 1024 30.24 853 25.19 13.3 55.9 55 4.5 40.2
02:40 1024 30.24 853 25.19 13.2 55.7 56 4.7 40.5
02:45 1024 30.24 853 25.19 13 55.4 59 5.3 41.6
02:50 1024 30.24 853 25.19 12.7 54.8 59 5.1 41.1
02:55 1024 30.24 853 25.19 12.7 54.9 60 5.1 41.2
03:00 1024 30.24 853 25.19 12.7 54.9 59 5 41.1
03:05 1024 30.24 853 25.19 12.7 54.8 59 5 40.9
03:10 1023 30.21 853 25.19 12.8 55 59 5 40.9
03:15 1024 30.24 853 25.19 13.3 56 52 3.8 38.9
03:20 1024 30.24 853 25.19 13 55.4 56 4.4 39.9
03:25 1024 30.24 853 25.19 12.3 54.2 56 3.8 38.8
03:30 1024 30.24 853 25.19 11.8 53.3 54 3 37.4
03:35 1025 30.27 854 25.22 11.4 52.5 54 2.5 36.5
03:40 1024 30.24 854 25.22 11 51.8 54 2.2 35.9
03:45 1024 30.24 854 25.22 10.9 51.6 55 2.2 35.9
03:50 1025 30.27 854 25.22 10.7 51.3 55 2.2 35.9
03:55 1025 30.27 854 25.22 10.6 51 56 2.2 35.9
04:00 1025 30.27 854 25.22 10.4 50.8 56 2.1 35.8
04:05 1025 30.27 855 25.25 10.4 50.7 56 2.1 35.7
04:10 1026 30.3 855 25.25 10.1 50.2 57 2 35.6
04:15 1026 30.3 855 25.25 9.9 49.9 57 1.8 35.3
04:20 1026 30.3 855 25.25 9.8 49.6 58 1.9 35.5
04:25 1026 30.3 855 25.25 9.6 49.2 58 1.8 35.2
04:30 1026 30.3 855 25.25 9.5 49.2 58 1.7 35
04:35 1026 30.3 855 25.25 9.5 49.2 56 1.3 34.4
04:40 1026 30.3 855 25.25 9.5 49.1 57 1.6 34.8
04:45 1026 30.3 855 25.25 9.3 48.8 58 1.4 34.5
04:50 1026 30.3 855 25.25 9.3 48.7 58 1.4 34.5
04:55 1026 30.3 855 25.25 9.2 48.5 57 1.3 34.3
05:00 1026 30.3 855 25.25 9.1 48.4 57 1.2 34.2
05:05 1026 30.3 856 25.28 9.3 48.7 57 1.2 34.2
05:10 1027 30.33 856 25.28 9.3 48.7 58 1.5 34.6
05:15 1027 30.33 856 25.28 9.3 48.7 58 1.5 34.8
05:20 1027 30.33 856 25.28 9.2 48.6 57 1.2 34.2
05:25 1027 30.33 856 25.28 9.3 48.7 56 1.1 34
05:30 1027 30.33 856 25.28 9.2 48.6 57 1.2 34.2
05:35 1027 30.33 856 25.28 9.2 48.5 58 1.4 34.4
05:40 1027 30.33 856 25.28 9.2 48.5 58 1.3 34.3
05:45 1027 30.33 856 25.28 9.5 49 55 0.9 33.6
05:50 1027 30.33 856 25.28 9.6 49.2 55 1 33.7
05:55 1027 30.33 856 25.28 9.6 49.2 54 0.8 33.5
06:00 1027 30.33 856 25.28 9.7 49.4 54 0.7 33.3
06:05 1027 30.33 856 25.28 9.6 49.3 54 0.8 33.5
06:10 1027 30.33 856 25.28 9.6 49.2 54 0.8 33.5
06:15 1027 30.33 856 25.28 9.6 49.3 54 0.9 33.6
06:20 1027 30.33 857 25.31 9.7 49.4 54 0.9 33.6
06:25 1027 30.33 857 25.31 9.9 49.8 53 0.9 33.7
06:30 1027 30.33 857 25.31 10.2 50.3 52 0.7 33.3
06:35 1028 30.36 857 25.31 10.6 51.1 50 0.7 33.2
06:40 1028 30.36 857 25.31 10.8 51.4 50 0.8 33.4
06:45 1028 30.36 857 25.31 11 51.8 48 0.3 32.6
06:50 1028 30.36 857 25.31 11.3 52.3 45 -0.3 31.5
06:55 1028 30.36 857 25.31 11.6 52.8 45 -0.1 31.9
07:00 1028 30.36 857 25.31 11.7 53 45 0.1 32.1
07:05 1028 30.36 857 25.31 11.8 53.3 41 -0.9 30.4
07:10 1028 30.36 857 25.31 12 53.6 41 -0.8 30.5
07:15 1028 30.36 857 25.31 12 53.6 41 -0.7 30.8
07:20 1028 30.36 857 25.31 12.3 54.2 42 -0.3 31.5
07:25 1028 30.36 857 25.31 12.1 53.8 41 -0.7 30.7
07:30 1028 30.36 857 25.31 12.4 54.2 40 -0.8 30.6
07:35 1028 30.36 857 25.31 12.7 54.9 38 -1 30.1
07:40 1028 30.36 857 25.31 12.7 54.9 40 -0.6 31
07:45 1028 30.36 857 25.31 12.8 55.1 39 -0.7 30.7
07:50 1028 30.36 857 25.31 13 55.4 40 -0.3 31.5
07:55 1028 30.36 857 25.31 13 55.5 38 -0.9 30.3
08:00 1028 30.36 857 25.31 13 55.5 37 -1.2 29.8
08:05 1028 30.36 857 25.31 13 55.5 35 -1.8 28.7
08:10 1028 30.36 857 25.31 12.9 55.2 35 -2.3 27.9
08:15 1028 30.36 857 25.31 13.1 55.5 35 -1.9 28.6
08:20 1028 30.36 857 25.31 13.2 55.7 35 -1.9 28.6
08:25 1028 30.36 857 25.31 13.5 56.3 34 -1.9 28.6
08:30 1028 30.36 857 25.31 13.5 56.3 36 -1.3 29.6
08:35 1028 30.36 857 25.31 13.5 56.2 35 -1.7 28.9
08:40 1028 30.36 857 25.31 13.9 57 35 -1.3 29.6
08:45 1028 30.36 857 25.31 13.6 56.5 35 -1.4 29.4
08:50 1028 30.36 857 25.31 14 57.2 35 -1 30.2
08:55 1028 30.36 857 25.31 14.1 57.5 36 -0.7 30.7
09:00 1028 30.36 857 25.31 14.1 57.4 35 -1 30.3
09:05 1028 30.36 857 25.31 13.9 57 36 -0.9 30.5
09:10 1028 30.36 857 25.31 14.2 57.5 35 -1 30.1
09:15 1028 30.36 857 25.31 14.4 57.9 36 -0.4 31.3
09:20 1028 30.36 857 25.31 14.7 58.5 34 -0.9 30.4
09:25 1028 30.36 857 25.31 14.9 58.8 34 -0.9 30.4
09:30 1028 30.36 857 25.31 14.9 58.7 34 -0.7 30.8
09:35 1028 30.36 857 25.31 14.5 58 35 -0.7 30.8
09:40 1028 30.36 857 25.31 14.8 58.6 32 -1.4 29.4
09:45 1028 30.36 857 25.31 14.8 58.6 33 -1.3 29.7
09:50 1028 30.36 857 25.31 14.6 58.3 33 -1.6 29.1
09:55 1028 30.36 857 25.31 14.7 58.4 33 -1.2 29.8
10:00 1028 30.36 857 25.31 14.6 58.4 33 -1.2 29.9
10:05 1028 30.36 857 25.31 15.2 59.4 33 -0.9 30.5
10:10 1028 30.36 857 25.31 15.3 59.6 33 -0.9 30.3
10:15 1028 30.36 857 25.31 15.9 60.7 32 -0.8 30.6
10:20 1028 30.36 857 25.31 15.7 60.3 34 -0.2 31.6
10:25 1028 30.36 857 25.31 15.2 59.4 33 -1 30.2
10:30 1028 30.36 857 25.31 14.6 58.3 35 -0.5 31.2
10:35 1028 30.36 857 25.31 15.1 59.2 34 -0.5 31.1
10:40 1028 30.36 857 25.31 15.1 59.2 34 -0.6 30.9
10:45 1028 30.36 857 25.31 15 59.1 35 -0.3 31.5
10:50 1028 30.36 857 25.31 15.9 60.7 34 0.1 32.1
10:55 1028 30.36 857 25.31 16.1 61 33 -0.1 31.9
11:00 1028 30.36 857 25.31 15.2 59.4 36 0.3 32.5
11:05 1028 30.36 857 25.31 15.9 60.6 35 0.4 32.8
11:10 1028 30.36 857 25.31 16.3 61.4 32 -0.1 31.8
11:15 1028 30.36 857 25.31 17 62.7 31 -0.2 31.7
11:20 1028 30.36 857 25.31 17.4 63.4 31 0.1 32.1
11:25 1028 30.36 857 25.31 17.4 63.4 31 0.4 32.6
11:30 1028 30.36 857 25.31 17 62.7 32 0.3 32.5
11:35 1028 30.36 857 25.31 16.7 62 33 0.4 32.7
11:40 1027 30.33 857 25.31 17.3 63.1 31 0.2 32.4
11:45 1027 30.33 857 25.31 17.9 64.3 30 0.4 32.7
11:50 1027 30.33 857 25.31 18.6 65.4 29 0.3 32.5
11:55 1027 30.33 857 25.31 18.7 65.6 30 0.7 33.3
12:00 1027 30.33 857 25.31 18.2 64.8 29 -0 31.9
12:05 1027 30.33 856 25.28 18 64.5 30 0.2 32.4
12:10 1027 30.33 856 25.28 18 64.5 29 -0.1 31.9
12:15 1027 30.33 856 25.28 17.4 63.2 28 -1.3 29.7
12:20 1027 30.33 856 25.28 18.2 64.7 27 -0.9 30.4
12:25 1027 30.33 856 25.28 18.4 65.1 25 -1.7 29
12:30 1027 30.33 856 25.28 19.1 66.4 24 -1.8 28.7
12:35 1027 30.33 856 25.28 19.1 66.3 24 -1.8 28.7
12:40 1027 30.33 856 25.28 18.8 65.9 23 -2.8 26.9
12:45 1027 30.33 856 25.28 19.4 66.9 23 -2.2 28
12:50 1027 30.33 856 25.28 19.3 66.7 21 -3.2 26.2
12:55 1027 30.33 856 25.28 18.4 65.1 23 -2.8 27
13:00 1027 30.33 856 25.28 18.9 66 22 -3 26.6
13:05 1027 30.33 856 25.28 19.2 66.6 21 -3.6 25.5
13:10 1027 30.33 856 25.28 18.9 65.9 23 -2.8 27
13:15 1027 30.33 856 25.28 19.9 67.7 23 -1.8 28.8
13:20 1027 30.33 856 25.28 20.2 68.3 21 -2.5 27.5
13:25 1027 30.33 856 25.28 19.7 67.4 20 -3.9 25.1
13:30 1027 30.33 856 25.28 20 68.1 22 -2.4 27.6
13:35 1027 30.33 856 25.28 20.6 69.1 20 -2.7 27.2
13:40 1027 30.33 856 25.28 20.8 69.4 20 -2.9 26.8
13:45 1027 30.33 856 25.28 20.2 68.3 20 -3 26.6
13:50 1027 30.33 856 25.28 19.7 67.5 21 -2.8 27
13:55 1026 30.3 856 25.28 19.6 67.3 21 -3.4 25.9
14:00 1026 30.3 856 25.28 20 67.9 21 -3.1 26.4
14:05 1026 30.3 856 25.28 20.9 69.7 19 -3.2 26.3
14:10 1026 30.3 856 25.28 20.8 69.5 20 -2.6 27.3
14:15 1026 30.3 856 25.28 21.2 70.1 21 -2 28.5
14:20 1026 30.3 856 25.28 21.6 70.9 20 -2.4 27.6
14:25 1026 30.3 856 25.28 21.3 70.3 20 -2.5 27.5
14:30 1026 30.3 855 25.25 21.2 70.1 20 -2.8 27
14:35 1026 30.3 855 25.25 21.6 70.9 18 -3.3 26.1
14:40 1026 30.3 855 25.25 21.7 71 19 -3.1 26.4
14:45 1026 30.3 855 25.25 21.6 70.9 18 -3.6 25.6
14:50 1026 30.3 855 25.25 21.6 70.8 19 -3.1 26.4
14:55 1026 30.3 855 25.25 21.7 71.1 18 -3.1 26.4
15:00 1026 30.3 855 25.25 21.5 70.6 18 -3.5 25.7
15:05 1026 30.3 855 25.25 21.1 70 18 -3.7 25.4
15:10 1026 30.3 855 25.25 21.5 70.6 18 -3.7 25.3
15:15 1026 30.3 855 25.25 21.9 71.3 17 -4.1 24.7
15:20 1026 30.3 855 25.25 22 71.5 18 -3.1 26.4
15:25 1026 30.3 855 25.25 22.2 71.9 17 -3.9 24.9
15:30 1026 30.3 855 25.25 21.9 71.5 17 -3.8 25.2
15:35 1026 30.3 855 25.25 21.8 71.2 17 -4.1 24.7
15:40 1026 30.3 855 25.25 22 71.7 17 -4.2 24.5
15:45 1026 30.3 855 25.25 22.3 72.1 17 -4.1 24.7
15:50 1026 30.3 855 25.25 22.6 72.6 15 -4.9 23.3
15:55 1026 30.3 855 25.25 22.4 72.4 16 -4.2 24.5
16:00 1026 30.3 855 25.25 22.7 72.9 16 -4.3 24.3
16:05 1026 30.3 855 25.25 22.4 72.4 15 -5 23
16:10 1026 30.3 855 25.25 22.4 72.4 16 -4.7 23.5
16:15 1026 30.3 855 25.25 22.7 72.8 15 -4.9 23.1
16:20 1026 30.3 855 25.25 22.5 72.6 17 -3.7 25.4
16:25 1026 30.3 855 25.25 21.9 71.5 17 -4.1 24.6
16:30 1026 30.3 855 25.25 21.4 70.5 17 -4.7 23.6
16:35 1026 30.3 855 25.25 22 71.6 17 -4.1 24.6
16:40 1026 30.3 855 25.25 22.3 72.2 15 -5 23
16:45 1026 30.3 855 25.25 22.6 72.7 15 -4.9 23.1
16:50 1026 30.3 855 25.25 22.7 72.8 16 -4.7 23.6
16:55 1026 30.3 855 25.25 22.4 72.4 17 -3.6 25.6
17:00 1026 30.3 855 25.25 22 71.7 17 -4 24.8
17:05 1026 30.3 855 25.25 22.3 72.1 16 -4.2 24.4
17:10 1026 30.3 855 25.25 22.8 73 15 -5.1 22.7
17:15 1026 30.3 855 25.25 23.1 73.6 15 -4.7 23.5
17:20 1026 30.3 855 25.25 22.9 73.2 16 -4.4 24.1
17:25 1026 30.3 855 25.25 22.7 72.8 15 -4.9 23.2
17:30 1026 30.3 855 25.25 21.9 71.4 16 -4.8 23.4
17:35 1026 30.3 855 25.25 22 71.6 17 -3.9 25
17:40 1026 30.3 855 25.25 21.8 71.3 15 -5.5 22.2
17:45 1026 30.3 855 25.25 21.6 70.8 15 -5.6 21.9
17:50 1026 30.3 855 25.25 21.1 69.9 15 -6.3 20.7
17:55 1026 30.3 855 25.25 20.9 69.6 17 -5.2 22.6
18:00 1026 30.3 855 25.25 21.7 71 16 -5.5 22.1
18:05 1026 30.3 855 25.25 22 71.7 15 -5.5 22.2
18:10 1026 30.3 855 25.25 21.8 71.3 15 -6 21.2
18:15 1026 30.3 855 25.25 21.9 71.4 15 -5.9 21.4
18:20 1026 30.3 855 25.25 21.8 71.2 15 -6.2 20.8
18:25 1026 30.3 855 25.25 21.7 71.1 14 -6.7 19.9
18:30 1026 30.3 855 25.25 21.6 71 15 -6 21.1
18:35 1026 30.3 855 25.25 21.2 70.1 15 -6.4 20.5
18:40 1026 30.3 855 25.25 21.1 69.9 14 -7.2 19.1
18:45 1026 30.3 855 25.25 21.1 69.9 15 -6.9 19.6
18:50 1026 30.3 855 25.25 21 69.9 15 -6.8 19.8
18:55 1026 30.3 855 25.25 21 69.7 15 -6.7 20
19:00 1026 30.3 855 25.25 21 69.8 15 -6.1 21.1
19:05 1026 30.3 855 25.25 20.8 69.4 16 -5.5 22.2
19:10 1026 30.3 855 25.25 20.8 69.4 16 -5.6 21.9
19:15 1026 30.3 855 25.25 20.7 69.3 17 -4.8 23.3
19:20 1026 30.3 856 25.28 20.7 69.2 17 -4.9 23.1
19:25 1026 30.3 856 25.28 20.6 69 16 -6 21.2
19:30 1026 30.3 856 25.28 20.5 69 17 -5.1 22.9
19:35 1026 30.3 856 25.28 20.4 68.6 17 -5.6 22
19:40 1027 30.33 856 25.28 20.3 68.6 20 -3.1 26.5
19:45 1026 30.3 856 25.28 20.1 68.1 21 -2.5 27.5
19:50 1026 30.3 856 25.28 19.9 67.8 22 -2.5 27.5
19:55 1027 30.33 856 25.28 19.8 67.6 23 -2.1 28.3
20:00 1027 30.33 856 25.28 19.7 67.4 23 -2 28.4
20:05 1027 30.33 856 25.28 19.5 67.1 22 -2.4 27.6
20:10 1027 30.33 856 25.28 19.3 66.8 23 -2 28.5
20:15 1027 30.33 856 25.28 19.1 66.3 29 0.7 33.3
20:20 1027 30.33 856 25.28 18.3 64.9 31 0.9 33.6
20:25 1027 30.33 856 25.28 17.7 63.8 30 0.2 32.3
20:30 1027 30.33 856 25.28 17.3 63.1 31 0.4 32.6
20:35 1027 30.33 856 25.28 16.9 62.4 32 0.3 32.5
20:40 1027 30.33 856 25.28 16.6 61.9 34 0.9 33.7
20:45 1027 30.33 856 25.28 16.3 61.3 34 0.4 32.6
20:50 1027 30.33 856 25.28 15.9 60.7 35 0.4 32.7
20:55 1027 30.33 856 25.28 15.5 60 34 -0.2 31.7
21:00 1027 30.33 856 25.28 15.3 59.5 36 0.3 32.5
21:05 1027 30.33 857 25.31 15 58.9 38 0.8 33.4
21:10 1027 30.33 857 25.31 14.6 58.4 40 1.2 34.2
21:15 1027 30.33 857 25.31 14.5 58 41 1.3 34.3
21:20 1028 30.36 857 25.31 14 57.2 43 1.8 35.2
21:25 1028 30.36 857 25.31 13.5 56.3 47 2.6 36.7
21:30 1028 30.36 857 25.31 12.8 55.1 48 2.1 35.9
21:35 1028 30.36 857 25.31 12.9 55.2 44 1.1 34
21:40 1028 30.36 857 25.31 13.4 56 41 0.5 32.9
21:45 1028 30.36 857 25.31 13.6 56.5 41 0.6 33.1
21:50 1028 30.36 857 25.31 13.7 56.6 41 0.7 33.3
21:55 1028 30.36 857 25.31 13.6 56.4 39 -0.1 31.9
22:00 1028 30.36 857 25.31 13.8 56.8 39 0.1 32.2
22:05 1028 30.36 857 25.31 13.7 56.6 40 0.3 32.6
22:10 1028 30.36 857 25.31 13.6 56.4 39 -0.1 31.8
22:15 1028 30.36 857 25.31 13.6 56.4 40 0.3 32.6
22:20 1028 30.36 857 25.31 13.5 56.2 39 0 32
22:25 1028 30.36 857 25.31 13.1 55.5 45 1.4 34.6
22:30 1028 30.36 857 25.31 12.4 54.3 43 0.2 32.3
22:35 1028 30.36 857 25.31 12.6 54.6 45 1 33.8
22:40 1028 30.36 857 25.31 12.2 54 44 0.5 32.9
22:45 1028 30.36 857 25.31 11.9 53.4 48 1.2 34.1
22:50 1028 30.36 857 25.31 11.4 52.5 46 0.4 32.7
22:55 1028 30.36 857 25.31 11.6 53 44 0 32
23:00 1028 30.36 857 25.31 11.8 53.2 46 0.6 33
23:05 1028 30.36 857 25.31 11.6 52.9 46 0.6 33
23:10 1028 30.36 857 25.31 11.5 52.8 45 0 32.1
23:15 1028 30.36 857 25.31 11.8 53.3 41 -0.9 30.4
23:20 1028 30.36 857 25.31 12 53.6 41 -0.9 30.3
23:25 1028 30.36 857 25.31 12 53.7 40 -1 30.1
23:30 1028 30.36 857 25.31 12 53.5 41 -0.9 30.3
23:35 1028 30.36 857 25.31 11.8 53.3 42 -0.7 30.7
23:40 1028 30.36 857 25.31 11.6 52.9 42 -0.9 30.4
23:45 1028 30.36 857 25.31 11.8 53.2 40 -1.3 29.7
23:50 1028 30.36 857 25.31 12 53.7 40 -1 30.2
23:55 1028 30.36 857 25.31 12 53.6 41 -0.7 30.7
24:00 1028 30.36 857 25.31 11.7 53 43 -0.5 31.2